Time;durP1;ratioP1;P1;durP2;ratioP2;P2;SDS_P1;SDS_P2;PMS_P1;PMS_P2;Temp;Humidity;BMP_temperature;BMP_pressure;BME280_temperature;BME280_humidity;BME280_pressure;Samples;Min_cycle;Max_cycle;Signal;HPM_P1;HPM_P2
2021/06/28 00:00:24;;;;;;;3.95;3.40;;;;;;;15.36;78.01;95897.46;1795166;80;21520;-59
2021/06/28 00:02:52;;;;;;;6.85;3.50;;;;;;;15.28;77.64;95901.70;1795569;80;21038;-59
2021/06/28 00:05:19;;;;;;;4.37;3.42;;;;;;;15.26;78.29;95897.35;1795058;80;21084;-59
2021/06/28 00:07:47;;;;;;;3.77;3.40;;;;;;;15.28;78.11;95900.84;1792240;80;21039;-59
2021/06/28 00:10:19;;;;;;;5.50;3.00;;;;;;;15.25;77.81;95896.48;1787111;80;20999;-59
2021/06/28 00:12:46;;;;;;;4.80;3.15;;;;;;;15.29;77.41;95898.11;1787045;80;21014;-61
2021/06/28 00:15:18;;;;;;;4.03;3.10;;;;;;;15.32;77.03;95903.78;1787118;80;21003;-59
2021/06/28 00:17:46;;;;;;;4.17;3.50;;;;;;;15.34;76.87;95902.81;1787214;80;21034;-59
2021/06/28 00:20:14;;;;;;;4.22;3.72;;;;;;;15.38;77.07;95906.73;1787051;80;20999;-59
2021/06/28 00:22:41;;;;;;;4.33;3.83;;;;;;;15.41;77.06;95909.28;1787227;80;20975;-59
2021/06/28 00:25:11;;;;;;;5.20;3.50;;;;;;;15.34;77.24;95909.46;1787144;80;21481;-60
2021/06/28 00:27:43;;;;;;;3.98;3.10;;;;;;;15.34;77.35;95909.93;1780283;80;21469;-59
2021/06/28 00:30:14;;;;;;;6.75;3.50;;;;;;;15.29;77.25;95909.20;1786953;80;21070;-59
2021/06/28 00:32:42;;;;;;;3.98;3.55;;;;;;;15.26;77.07;95902.66;1786887;80;20975;-59
2021/06/28 00:35:10;;;;;;;3.87;3.10;;;;;;;15.26;76.95;95910.64;1786942;80;21018;-59
2021/06/28 00:37:38;;;;;;;3.52;3.22;;;;;;;15.19;77.20;95906.44;1787146;80;21476;-59
2021/06/28 00:40:10;;;;;;;4.67;3.12;;;;;;;15.17;77.32;95909.59;1786840;80;21050;-59
2021/06/28 00:42:37;;;;;;;4.33;3.50;;;;;;;15.06;77.82;95908.61;1787114;80;21058;-59
2021/06/28 00:45:20;;;;;;;6.97;3.65;;;;;;;15.00;78.11;95908.34;1786863;80;20999;-59
2021/06/28 00:47:48;;;;;;;4.37;3.83;;;;;;;15.03;77.47;95911.38;1787166;80;21019;-59
2021/06/28 00:50:16;;;;;;;3.50;3.17;;;;;;;14.99;77.31;95910.58;1787126;80;20979;-59
2021/06/28 00:52:47;;;;;;;3.10;2.80;;;;;;;14.88;76.74;95912.24;1787061;80;21019;-59
2021/06/28 00:55:14;;;;;;;5.37;3.08;;;;;;;14.77;77.56;95913.50;1786801;80;20991;-59
2021/06/28 00:57:42;;;;;;;3.85;3.45;;;;;;;14.67;77.63;95908.45;1787066;80;21011;-59
2021/06/28 01:00:11;;;;;;;4.08;3.10;;;;;;;14.57;78.58;95907.45;1787001;80;20990;-59
2021/06/28 01:02:38;;;;;;;4.70;3.72;;;;;;;14.54;79.23;95908.41;1787028;80;21496;-59
2021/06/28 01:05:09;;;;;;;6.25;4.03;;;;;;;14.55;79.39;95915.45;1787122;80;21007;-59
2021/06/28 01:07:35;;;;;;;4.90;3.80;;;;;;;14.65;78.91;95909.41;1788316;80;21065;-59
2021/06/28 01:10:05;;;;;;;5.33;3.75;;;;;;;14.73;78.54;95918.48;1795485;80;21054;-59
2021/06/28 01:12:32;;;;;;;3.42;2.65;;;;;;;14.73;78.97;95920.67;1795387;80;21054;-59
2021/06/28 01:15:00;;;;;;;3.22;2.77;;;;;;;14.67;78.85;95919.54;1795022;80;20998;-59
2021/06/28 01:17:27;;;;;;;5.12;3.08;;;;;;;14.60;78.35;95917.97;1795357;80;20982;-59
2021/06/28 01:20:02;;;;;;;5.85;3.50;;;;;;;14.53;78.13;95917.70;1795527;80;21464;-59
2021/06/28 01:22:33;;;;;;;5.22;3.60;;;;;;;14.53;78.01;95919.03;1795240;80;21113;-59
2021/06/28 01:25:01;;;;;;;4.33;3.37;;;;;;;14.59;78.65;95921.53;1795579;80;21034;-59
2021/06/28 01:27:30;;;;;;;7.37;3.37;;;;;;;14.65;78.36;95918.24;1795585;80;21464;-59
2021/06/28 01:29:57;;;;;;;3.67;3.20;;;;;;;14.65;78.14;95918.70;1795207;80;21014;-59
2021/06/28 01:32:25;;;;;;;3.75;3.00;;;;;;;14.64;78.22;95914.30;1795447;80;20995;-59
2021/06/28 01:34:53;;;;;;;5.20;3.25;;;;;;;14.52;79.31;95909.33;1795485;80;21058;-59
2021/06/28 01:37:23;;;;;;;5.12;2.95;;;;;;;14.48;79.13;95901.43;1795234;80;21013;-59
2021/06/28 01:39:54;;;;;;;3.50;3.15;;;;;;;14.46;78.60;95903.29;1795658;80;21476;-59
2021/06/28 01:42:22;;;;;;;4.95;3.37;;;;;;;14.38;78.30;95912.38;1795318;80;21006;-61
2021/06/28 01:44:50;;;;;;;3.80;3.20;;;;;;;14.33;79.19;95911.62;1795304;80;21011;-59
2021/06/28 01:47:17;;;;;;;5.08;3.58;;;;;;;14.43;79.11;95912.64;1795839;80;21029;-59
2021/06/28 01:49:45;;;;;;;5.35;3.55;;;;;;;14.53;78.62;95911.95;1795370;80;21030;-59
2021/06/28 01:52:13;;;;;;;5.00;3.27;;;;;;;14.57;78.23;95914.95;1795437;80;21010;-60
2021/06/28 01:54:40;;;;;;;5.70;3.35;;;;;;;14.49;78.63;95904.52;1795337;80;21022;-59
2021/06/28 01:57:08;;;;;;;4.53;3.33;;;;;;;14.45;77.72;95907.30;1795205;80;21064;-59
2021/06/28 01:59:37;;;;;;;3.72;3.42;;;;;;;14.38;77.80;95907.06;1795256;80;20967;-59
2021/06/28 02:02:06;;;;;;;7.25;3.35;;;;;;;14.37;78.53;95910.17;1795309;80;21006;-59
2021/06/28 02:04:34;;;;;;;3.70;3.40;;;;;;;14.35;78.45;95911.14;1764096;80;20998;-59
2021/06/28 02:07:03;;;;;;;4.30;3.15;;;;;;;14.24;78.60;95910.12;1796054;80;21405;-59
2021/06/28 02:09:33;;;;;;;5.67;3.62;;;;;;;14.16;78.98;95905.02;1788556;80;21010;-59
2021/06/28 02:12:00;;;;;;;10.38;4.78;;;;;;;14.06;79.56;95910.14;1787025;80;21034;-59
2021/06/28 02:14:27;;;;;;;7.12;3.75;;;;;;;14.05;79.30;95909.27;1787113;80;21022;-59
2021/06/28 02:16:54;;;;;;;4.85;3.72;;;;;;;14.12;79.36;95912.64;1787148;80;21019;-59
2021/06/28 02:19:21;;;;;;;8.70;3.92;;;;;;;14.10;78.88;95917.58;1786722;80;21019;-59
2021/06/28 02:21:49;;;;;;;3.95;3.30;;;;;;;14.11;79.05;95907.37;1787417;80;20991;-59
2021/06/28 02:24:16;;;;;;;5.92;3.50;;;;;;;14.12;78.84;95908.66;1787302;80;21010;-59
2021/06/28 02:26:45;;;;;;;4.05;3.65;;;;;;;14.09;78.63;95908.75;1786869;80;21079;-59
2021/06/28 02:29:12;;;;;;;5.15;3.30;;;;;;;14.11;79.00;95905.61;1787130;80;20983;-59
2021/06/28 02:31:40;;;;;;;6.93;3.67;;;;;;;14.15;79.52;95900.61;1787206;80;21050;-59
2021/06/28 02:34:07;;;;;;;8.38;3.75;;;;;;;14.14;79.45;95904.19;1786927;80;21102;-59
2021/06/28 02:36:34;;;;;;;4.35;3.70;;;;;;;14.20;79.39;95903.14;1787187;80;21023;-59
2021/06/28 02:39:01;;;;;;;6.97;3.60;;;;;;;14.29;79.42;95905.09;1787116;80;20990;-59
2021/06/28 02:41:28;;;;;;;4.92;3.50;;;;;;;14.32;79.15;95909.44;1787154;80;21007;-59
2021/06/28 02:43:55;;;;;;;6.40;2.98;;;;;;;14.26;78.80;95905.18;1787030;80;21504;-59
2021/06/28 02:46:23;;;;;;;6.28;3.05;;;;;;;14.18;79.09;95905.83;1786920;80;21023;-59
2021/06/28 02:48:50;;;;;;;5.05;3.50;;;;;;;14.10;79.83;95898.54;1787032;80;21512;-59
2021/06/28 02:51:17;;;;;;;6.25;3.85;;;;;;;14.12;79.48;95902.03;1787339;80;20987;-59
2021/06/28 02:53:46;;;;;;;4.70;3.70;;;;;;;14.07;79.64;95898.17;1786812;80;21488;-59
2021/06/28 02:56:12;;;;;;;5.58;3.52;;;;;;;14.21;79.67;95892.93;1787208;80;20994;-59
2021/06/28 02:58:46;;;;;;;4.08;3.25;;;;;;;14.28;79.31;95895.36;1787227;80;21007;-59
2021/06/28 03:01:15;;;;;;;4.45;3.30;;;;;;;14.37;79.19;95892.06;1787182;80;21043;-59
2021/06/28 03:03:42;;;;;;;4.05;2.52;;;;;;;14.36;78.76;95895.14;1780074;80;21019;-59
2021/06/28 03:06:09;;;;;;;3.40;3.10;;;;;;;14.28;78.78;95892.71;1787185;80;20986;-59
2021/06/28 03:08:36;;;;;;;4.37;3.50;;;;;;;14.20;79.71;95891.20;1789653;80;21046;-59
2021/06/28 03:11:04;;;;;;;5.17;3.02;;;;;;;14.34;79.61;95892.13;1795271;80;21011;-59
2021/06/28 03:13:33;;;;;;;4.85;2.92;;;;;;;14.28;79.56;95891.38;1795502;80;21072;-59
2021/06/28 03:15:59;;;;;;;4.12;3.10;;;;;;;14.24;79.06;95894.20;1795642;80;21013;-59
2021/06/28 03:18:27;;;;;;;5.25;3.05;;;;;;;14.20;79.92;95896.05;1795206;80;21059;-59
2021/06/28 03:20:54;;;;;;;10.45;6.25;;;;;;;14.34;79.69;95898.33;1795360;80;21456;-59
2021/06/28 03:23:21;;;;;;;9.28;7.65;;;;;;;14.40;79.67;95902.12;1795557;80;21066;-59
2021/06/28 03:25:49;;;;;;;8.93;6.90;;;;;;;14.42;79.76;95894.13;1795227;80;21049;-59
2021/06/28 03:28:17;;;;;;;6.12;5.40;;;;;;;14.57;80.17;95895.50;1795067;80;21006;-59
2021/06/28 03:30:44;;;;;;;6.17;4.47;;;;;;;14.70;79.64;95895.54;1795223;80;21022;-59
2021/06/28 03:33:11;;;;;;;4.12;3.70;;;;;;;14.83;79.66;95886.73;1795425;80;21074;-59
2021/06/28 03:35:38;;;;;;;4.22;3.10;;;;;;;14.87;80.50;95891.92;1795384;80;21449;-59
2021/06/28 03:38:05;;;;;;;7.03;5.37;;;;;;;14.91;80.64;95893.55;1795466;80;21061;-59
2021/06/28 03:40:32;;;;;;;7.33;5.75;;;;;;;15.00;80.21;95893.73;1795766;80;20998;-59
2021/06/28 03:43:08;;;;;;;7.10;6.40;;;;;;;15.06;79.93;95890.87;1795241;80;21062;-59
2021/06/28 03:45:36;;;;;;;9.03;5.60;;;;;;;15.11;79.43;95897.38;1795354;80;21088;-59
2021/06/28 03:48:05;;;;;;;5.50;5.00;;;;;;;15.16;79.31;95895.44;1795513;80;20991;-59
2021/06/28 03:50:33;;;;;;;6.25;4.67;;;;;;;15.21;79.40;95899.28;1795264;80;21006;-59
2021/06/28 03:53:00;;;;;;;5.08;4.53;;;;;;;15.28;79.21;95892.86;1795376;80;21076;-59
2021/06/28 03:55:28;;;;;;;5.90;4.85;;;;;;;15.34;79.09;95897.97;1795301;80;21531;-59
2021/06/28 03:57:55;;;;;;;6.47;3.62;;;;;;;15.40;78.92;95896.45;1795682;80;21018;-59
2021/06/28 04:00:24;;;;;;;8.45;5.10;;;;;;;15.42;79.54;95899.05;1795331;80;21010;-59
2021/06/28 04:02:52;;;;;;;10.82;5.42;;;;;;;15.46;79.66;95894.05;1795359;80;21038;-59
2021/06/28 04:05:21;;;;;;;8.88;5.50;;;;;;;15.53;80.01;95901.77;1795512;80;20993;-59
2021/06/28 04:07:49;;;;;;;14.05;8.50;;;;;;;15.65;79.49;95896.52;1795539;80;20999;-59
2021/06/28 04:10:19;;;;;;;14.98;7.25;;;;;;;15.76;79.24;95904.16;1795200;80;21547;-59
2021/06/28 04:12:49;;;;;;;19.25;9.03;;;;;;;15.86;79.20;95898.06;1795471;80;20959;-59
2021/06/28 04:15:17;;;;;;;12.25;7.33;;;;;;;15.98;78.72;95898.50;1795426;80;21476;-59
2021/06/28 04:17:49;;;;;;;23.98;10.60;;;;;;;16.10;78.53;95905.20;1795298;80;21014;-59
2021/06/28 04:20:18;;;;;;;21.85;11.85;;;;;;;16.21;78.25;95897.69;1795522;80;21014;-59
2021/06/28 04:22:45;;;;;;;8.43;5.90;;;;;;;16.33;78.02;95905.70;1795595;80;20947;-59
2021/06/28 04:25:16;;;;;;;8.28;5.42;;;;;;;16.44;77.28;95902.64;1794991;80;21011;-59
2021/06/28 04:27:44;;;;;;;10.43;7.95;;;;;;;16.52;77.13;95909.02;1795557;80;21516;-59
2021/06/28 04:30:13;;;;;;;15.63;12.80;;;;;;;16.62;77.42;95904.61;1795503;80;21022;-59
2021/06/28 04:32:41;;;;;;;26.20;13.32;;;;;;;16.71;77.36;95906.08;1795195;80;21478;-59
2021/06/28 04:35:11;;;;;;;16.87;11.73;;;;;;;16.83;77.37;95907.42;1795422;80;21530;-59
2021/06/28 04:37:40;;;;;;;13.93;10.20;;;;;;;16.95;77.21;95900.29;1795488;80;20986;-59
2021/06/28 04:40:10;;;;;;;11.05;9.13;;;;;;;17.08;77.06;95904.24;1795508;80;21010;-59
2021/06/28 04:42:37;;;;;;;10.95;8.13;;;;;;;17.22;76.99;95909.02;1795633;80;20990;-59
2021/06/28 04:45:06;;;;;;;11.90;6.15;;;;;;;17.35;76.54;95903.20;1795267;80;20982;-59
2021/06/28 04:47:32;;;;;;;10.98;6.10;;;;;;;17.42;75.59;95902.02;1795567;80;21488;-59
2021/06/28 04:50:02;;;;;;;10.00;5.83;;;;;;;17.50;75.36;95901.23;1795593;80;21007;-59
2021/06/28 04:52:28;;;;;;;7.30;6.03;;;;;;;17.54;75.29;95892.19;1795256;80;20971;-59
2021/06/28 04:54:54;;;;;;;7.30;5.92;;;;;;;17.57;75.40;95885.38;1795365;80;21559;-59
2021/06/28 04:57:21;;;;;;;7.42;5.40;;;;;;;17.65;75.19;95887.73;1795237;80;21018;-59
2021/06/28 04:59:47;;;;;;;10.28;5.83;;;;;;;17.73;75.84;95894.94;1794866;80;21014;-59
2021/06/28 05:02:15;;;;;;;7.30;5.33;;;;;;;17.90;75.76;95896.94;1795258;80;20959;-59
2021/06/28 05:04:42;;;;;;;9.68;5.10;;;;;;;18.06;75.73;95894.00;1795698;80;20987;-59
2021/06/28 05:07:08;;;;;;;15.38;5.85;;;;;;;18.18;74.91;95889.08;1795231;80;21022;-58
2021/06/28 05:09:35;;;;;;;10.45;6.17;;;;;;;18.24;74.58;95885.64;1790923;80;21019;-60
2021/06/28 05:12:02;;;;;;;10.60;6.45;;;;;;;18.34;74.36;95887.45;1787152;80;21011;-59
2021/06/28 05:14:29;;;;;;;17.62;6.22;;;;;;;18.45;74.00;95878.50;1786899;80;21035;-59
2021/06/28 05:16:55;;;;;;;11.35;6.00;;;;;;;18.54;73.99;95885.22;1787031;80;21007;-59
2021/06/28 05:19:22;;;;;;;11.60;5.60;;;;;;;18.64;73.60;95889.68;1786897;80;20999;-59
2021/06/28 05:21:48;;;;;;;8.50;4.72;;;;;;;18.71;73.61;95881.78;1787051;80;20955;-59
2021/06/28 05:24:15;;;;;;;7.33;5.17;;;;;;;18.84;73.49;95884.79;1787165;80;20979;-59
2021/06/28 05:26:41;;;;;;;7.78;4.85;;;;;;;18.96;73.43;95885.55;1787380;80;21022;-59
2021/06/28 05:29:07;;;;;;;5.90;4.83;;;;;;;19.08;73.08;95884.98;1787106;80;21026;-59
2021/06/28 05:31:34;;;;;;;7.70;6.00;;;;;;;19.20;73.04;95891.53;1786548;80;21034;-59
2021/06/28 05:34:01;;;;;;;8.13;6.22;;;;;;;19.34;72.48;95891.74;1786846;80;21464;-59
2021/06/28 05:36:28;;;;;;;8.08;6.12;;;;;;;19.43;71.77;95886.44;1786751;80;20976;-59
2021/06/28 05:38:55;;;;;;;12.73;5.83;;;;;;;19.56;71.55;95888.03;1780244;80;20995;-59
2021/06/28 05:41:22;;;;;;;12.43;5.83;;;;;;;19.64;70.97;95883.16;1786633;80;21508;-59
2021/06/28 05:43:49;;;;;;;12.85;6.17;;;;;;;19.71;70.94;95875.26;1787103;80;20995;-59
2021/06/28 05:46:15;;;;;;;11.45;5.60;;;;;;;19.90;70.79;95893.92;1786749;80;21019;-59
2021/06/28 05:48:42;;;;;;;16.32;5.45;;;;;;;20.02;69.37;95893.30;1786932;80;21521;-59
2021/06/28 05:51:08;;;;;;;13.35;5.17;;;;;;;20.17;70.00;95895.67;1787415;80;20987;-59
2021/06/28 05:53:37;;;;;;;10.53;5.08;;;;;;;20.31;70.00;95893.16;1787112;80;21019;-59
2021/06/28 05:56:07;;;;;;;11.80;5.78;;;;;;;20.42;69.54;95896.59;1754224;80;21002;-59
2021/06/28 05:58:33;;;;;;;5.03;4.40;;;;;;;20.60;69.22;95902.83;1786766;80;21026;-59
2021/06/28 06:01:00;;;;;;;5.92;4.87;;;;;;;20.76;68.73;95904.20;1786858;80;21041;-59
2021/06/28 06:03:27;;;;;;;6.60;4.35;;;;;;;20.93;68.34;95899.27;1786626;80;21580;-59
2021/06/28 06:05:55;;;;;;;6.08;4.62;;;;;;;21.07;67.78;95898.05;1786878;80;21098;-59
2021/06/28 06:08:25;;;;;;;8.60;4.60;;;;;;;21.30;67.15;95891.88;1786765;80;20975;-59
2021/06/28 09:56:56;;;;;;;4.47;4.08;;;;;;;29.80;35.58;95914.27;1860329;77;22925;-59
2021/06/28 09:59:27;;;;;;;4.40;4.00;;;;;;;29.75;35.35;95923.34;1832047;78;20996;-59
2021/06/28 10:02:22;;;;;;;5.78;3.72;;;;;;;29.76;33.55;95917.78;1832423;78;21011;-60
2021/06/28 10:04:55;;;;;;;6.53;4.15;;;;;;;29.90;36.56;95919.74;1832013;78;21631;-59
2021/06/28 10:07:29;;;;;;;4.00;3.70;;;;;;;29.84;35.68;95915.73;1832301;78;21008;-60
2021/06/28 10:10:23;;;;;;;4.40;3.85;;;;;;;29.63;35.08;95923.05;1832475;78;21003;-60
2021/06/28 10:13:01;;;;;;;5.08;3.92;;;;;;;28.99;35.33;95924.16;1831999;78;21055;-59
2021/06/28 10:15:35;;;;;;;4.55;4.15;;;;;;;28.44;37.42;95925.64;1832290;78;21004;-59
2021/06/28 10:18:04;;;;;;;4.47;4.08;;;;;;;28.06;38.80;95924.30;1832355;78;21011;-59
2021/06/28 10:20:34;;;;;;;4.87;4.30;;;;;;;27.68;40.50;95926.08;1832217;78;21461;-59
2021/06/28 10:23:03;;;;;;;5.28;4.60;;;;;;;27.68;42.49;95929.64;1832560;78;21031;-59
2021/06/28 10:25:31;;;;;;;5.40;4.58;;;;;;;27.93;41.39;95924.45;1832492;78;21493;-59
2021/06/28 10:27:59;;;;;;;5.28;4.42;;;;;;;28.51;40.03;95917.89;1832297;78;20964;-59
2021/06/28 10:30:28;;;;;;;7.53;4.40;;;;;;;28.69;40.00;95924.45;1832359;78;20948;-60
2021/06/28 10:33:03;;;;;;;4.80;3.98;;;;;;;29.12;40.58;95917.53;1831897;78;21038;-59
2021/06/28 10:35:34;;;;;;;4.97;3.90;;;;;;;29.48;36.14;95924.81;1832414;78;20996;-60
2021/06/28 10:38:10;;;;;;;4.05;3.75;;;;;;;29.66;37.07;95926.88;1832437;78;20980;-59
2021/06/28 10:40:57;;;;;;;8.83;4.35;;;;;;;29.33;35.89;95928.86;1832226;78;21007;-59
2021/06/28 10:43:33;;;;;;;4.72;4.33;;;;;;;29.16;38.18;95924.94;1832361;78;20968;-59
2021/06/28 10:46:04;;;;;;;5.25;4.20;;;;;;;29.50;38.03;95928.23;1832321;78;21015;-60
2021/06/28 10:48:47;;;;;;;7.53;4.28;;;;;;;29.46;37.68;95929.52;1832278;78;21047;-59
2021/06/28 10:51:18;;;;;;;4.80;4.40;;;;;;;29.67;37.60;95921.32;1830941;78;20980;-60
2021/06/28 10:53:58;;;;;;;8.88;4.35;;;;;;;29.94;37.48;95916.61;1832153;78;21492;-59
2021/06/28 10:56:37;;;;;;;6.22;4.35;;;;;;;30.03;35.84;95915.41;1831711;78;21059;-60
2021/06/28 10:59:17;;;;;;;4.78;4.30;;;;;;;30.22;35.08;95912.72;1831951;78;20973;-60
2021/06/28 11:02:04;;;;;;;5.53;4.80;;;;;;;30.09;35.47;95912.10;1831379;78;21565;-60
2021/06/28 11:04:43;;;;;;;7.05;4.62;;;;;;;29.33;35.87;95917.52;1831529;78;21015;-59
2021/06/28 11:07:14;;;;;;;5.50;4.33;;;;;;;28.89;38.79;95918.16;1831768;78;21023;-60
2021/06/28 11:09:57;;;;;;;6.08;4.47;;;;;;;28.54;39.65;95920.33;1831720;78;20952;-60
2021/06/28 11:12:33;;;;;;;6.40;4.35;;;;;;;28.10;39.72;95914.93;1831765;78;21067;-60
2021/06/28 11:15:23;;;;;;;10.80;4.80;;;;;;;27.95;42.14;95913.50;1831504;78;21369;-60
2021/06/28 11:17:56;;;;;;;5.78;4.80;;;;;;;28.12;41.01;95906.64;1831667;78;21020;-60
2021/06/28 11:20:39;;;;;;;5.97;4.60;;;;;;;28.69;42.49;95903.58;1831905;78;20984;-60
2021/06/28 11:23:11;;;;;;;4.65;4.03;;;;;;;29.21;40.51;95899.58;1831466;78;21015;-60
2021/06/28 11:25:48;;;;;;;4.63;4.20;;;;;;;29.47;35.50;95908.12;1832237;78;21007;-60
2021/06/28 11:28:18;;;;;;;4.62;4.22;;;;;;;29.25;37.30;95904.23;1831545;78;20984;-60
2021/06/28 11:31:01;;;;;;;3.87;3.58;;;;;;;29.62;38.28;95908.61;1831849;78;21007;-60
2021/06/28 11:33:48;;;;;;;;;;;;;;;29.71;36.12;95900.13;1834410;78;21004;-60
2021/06/28 11:36:36;;;;;;;5.45;4.03;;;;;;;29.47;35.50;95897.24;1831042;78;20101;-60
2021/06/28 11:39:24;;;;;;;4.62;4.17;;;;;;;29.67;37.85;95898.20;1830619;78;20992;-60
2021/06/28 11:42:22;;;;;;;4.87;4.47;;;;;;;30.10;35.60;95883.91;1831666;78;21020;-60
2021/06/28 11:44:52;;;;;;;4.70;4.28;;;;;;;30.47;36.15;95879.17;1831735;78;20959;-60
2021/06/28 11:47:28;;;;;;;4.37;3.98;;;;;;;30.80;34.40;95874.60;1794284;80;21081;-60
2021/06/28 11:50:03;;;;;;;4.28;3.80;;;;;;;31.04;33.75;95877.36;1760620;80;21491;-59
2021/06/28 11:52:29;;;;;;;4.33;3.92;;;;;;;30.75;32.26;95872.82;1759091;81;21092;-61
2021/06/28 11:55:07;;;;;;;4.40;4.10;;;;;;;30.04;33.80;95869.48;1795349;80;21050;-60
2021/06/28 11:57:34;;;;;;;5.87;4.00;;;;;;;29.72;36.28;95873.32;1787419;80;20999;-60
2021/06/28 12:00:08;;;;;;;4.37;4.00;;;;;;;29.98;37.00;95870.92;1786846;80;21121;-60
2021/06/28 12:02:35;;;;;;;4.22;3.92;;;;;;;30.06;36.40;95870.22;1786580;80;21007;-61
2021/06/28 12:05:03;;;;;;;3.95;3.60;;;;;;;30.19;36.36;95873.03;1787089;80;20987;-60
2021/06/28 12:07:30;;;;;;;4.90;4.50;;;;;;;30.55;36.73;95863.81;1787147;80;21523;-60
2021/06/28 12:09:58;;;;;;;4.20;3.90;;;;;;;31.00;36.66;95869.15;1787188;80;21047;-60
2021/06/28 12:12:25;;;;;;;4.33;3.92;;;;;;;31.50;35.31;95857.06;1787177;80;21003;-61
2021/06/28 12:14:52;;;;;;;4.10;3.80;;;;;;;32.05;33.18;95852.95;1787296;80;20974;-61
2021/06/28 12:17:30;;;;;;;4.10;3.70;;;;;;;31.75;32.76;95853.62;1786802;80;21066;-61
2021/06/28 12:20:06;;;;;;;4.53;4.12;;;;;;;31.15;32.78;95858.64;1786722;80;21074;-61
2021/06/28 12:22:39;;;;;;;4.65;4.25;;;;;;;30.62;33.61;95862.23;1787276;80;20931;-60
2021/06/28 12:25:11;;;;;;;4.78;4.37;;;;;;;30.19;34.59;95853.98;1787023;80;21599;-61
2021/06/28 12:27:40;;;;;;;4.35;3.98;;;;;;;30.24;35.40;95855.40;1787307;80;21002;-61
2021/06/28 12:30:15;;;;;;;5.15;4.35;;;;;;;29.90;35.96;95847.14;1787240;80;21050;-60
2021/06/28 12:32:51;;;;;;;6.12;4.65;;;;;;;29.98;35.59;95847.80;1787046;80;21038;-61
2021/06/28 12:35:25;;;;;;;4.75;4.35;;;;;;;29.96;37.48;95860.67;1782355;80;21015;-60
2021/06/28 12:38:03;;;;;;;5.05;4.55;;;;;;;30.56;37.13;95848.33;1787211;80;21007;-61
2021/06/28 12:40:35;;;;;;;4.30;3.90;;;;;;;31.45;36.84;95846.13;1786914;80;20979;-61
2021/06/28 12:43:07;;;;;;;4.65;4.20;;;;;;;31.29;33.41;95845.01;1787102;80;21477;-60
2021/06/28 12:45:49;;;;;;;4.70;4.33;;;;;;;30.94;33.85;95837.02;1787390;80;21018;-61
2021/06/28 12:48:26;;;;;;;4.33;3.92;;;;;;;32.50;33.59;95843.86;1786853;80;20983;-61
2021/06/28 12:51:06;;;;;;;4.87;4.20;;;;;;;32.50;33.59;95843.86;1787250;80;20983;-61
2021/06/28 12:53:33;;;;;;;5.80;4.50;;;;;;;32.74;32.06;95845.43;1787078;80;20995;-61
2021/06/28 12:56:07;;;;;;;4.30;3.90;;;;;;;33.32;32.10;95846.69;1787053;80;21094;-60
2021/06/28 12:58:54;;;;;;;4.72;3.85;;;;;;;33.84;32.04;95829.30;1787135;80;21015;-61
2021/06/28 13:01:35;;;;;;;4.05;3.75;;;;;;;34.27;29.23;95835.58;1786460;80;21054;-61
2021/06/28 13:04:23;;;;;;;4.33;3.60;;;;;;;34.59;31.33;95836.16;1787234;80;21484;-61
2021/06/28 13:06:54;;;;;;;5.03;4.03;;;;;;;34.26;27.49;95833.88;1786824;80;21523;-60
2021/06/28 13:09:24;;;;;;;4.08;3.67;;;;;;;34.08;30.99;95838.65;1787452;80;21003;-61
2021/06/28 13:11:54;;;;;;;4.08;3.67;;;;;;;34.26;28.05;95835.25;1787554;80;21469;-61
2021/06/28 13:14:39;;;;;;;4.15;3.67;;;;;;;34.54;29.20;95841.78;1787022;80;20963;-61
2021/06/28 13:17:27;;;;;;;4.60;3.45;;;;;;;34.87;28.71;95835.27;1787070;80;21548;-61
2021/06/28 13:19:45;;;;;;;7.08;3.58;;;;;;;35.23;28.76;95834.92;1785006;80;21022;-61
2021/06/28 13:22:12;;;;;;;7.78;4.20;;;;;;;35.33;27.90;95833.32;1786973;80;21469;-61
2021/06/28 13:24:41;;;;;;;9.83;3.90;;;;;;;35.40;26.56;95830.22;1787021;80;21086;-62
2021/06/28 13:27:10;;;;;;;8.03;3.60;;;;;;;35.42;27.34;95829.53;1755310;80;21055;-61
2021/06/28 13:29:46;;;;;;;3.72;3.42;;;;;;;35.77;26.75;95825.99;1787015;80;21050;-61
2021/06/28 13:32:28;;;;;;;3.55;3.25;;;;;;;35.88;28.41;95828.84;1787099;80;21062;-61
2021/06/28 13:34:57;;;;;;;4.78;3.10;;;;;;;36.07;25.31;95833.05;1787108;80;21424;-61
2021/06/28 13:37:35;;;;;;;4.30;3.30;;;;;;;35.77;24.86;95826.52;1787161;80;21034;-61
2021/06/28 13:40:07;;;;;;;3.52;2.90;;;;;;;36.32;25.85;95826.38;1787230;80;20975;-61
2021/06/28 13:42:40;;;;;;;3.62;3.30;;;;;;;36.30;22.70;95821.58;1785151;80;21079;-61
2021/06/28 13:45:16;;;;;;;4.67;3.00;;;;;;;36.15;24.37;95828.38;1787169;80;20991;-61
2021/06/28 13:47:55;;;;;;;3.50;3.20;;;;;;;36.08;24.53;95829.28;1787289;80;21480;-61
2021/06/28 13:50:26;;;;;;;5.60;3.20;;;;;;;35.80;23.54;95819.28;1754026;80;21500;-62
2021/06/28 13:52:54;;;;;;;3.83;3.10;;;;;;;35.33;26.38;95826.46;1787074;80;21038;-61
2021/06/28 13:55:22;;;;;;;4.03;3.25;;;;;;;35.88;25.84;95820.08;1787046;80;21520;-61
2021/06/28 13:58:00;;;;;;;3.20;2.98;;;;;;;36.01;25.95;95825.51;1786942;80;21500;-61
2021/06/28 14:00:32;;;;;;;2.95;2.75;;;;;;;36.54;24.96;95824.67;1787063;80;21512;-61
2021/06/28 14:02:58;;;;;;;;;;;;;;;36.85;24.60;95818.25;1789757;80;21472;-62
2021/06/28 14:05:25;;;;;;;2.92;2.72;;;;;;;36.75;25.66;95816.28;1755705;82;20099;-61
2021/06/28 14:07:53;;;;;;;3.37;2.90;;;;;;;37.02;23.74;95818.95;1786751;80;21142;-61
2021/06/28 14:10:20;;;;;;;3.95;2.95;;;;;;;36.94;23.45;95816.25;1786907;80;20994;-61
2021/06/28 14:12:47;;;;;;;3.10;2.90;;;;;;;36.85;23.64;95810.00;1786987;80;21588;-61
2021/06/28 14:15:15;;;;;;;3.33;3.12;;;;;;;37.20;24.90;95815.34;1786613;80;21054;-63
2021/06/28 14:17:43;;;;;;;3.12;2.87;;;;;;;37.37;23.67;95813.77;1787187;80;21540;-61
2021/06/28 14:20:14;;;;;;;3.17;2.87;;;;;;;37.70;22.94;95809.27;1787078;80;20980;-62
2021/06/28 14:22:43;;;;;;;4.47;2.83;;;;;;;37.42;24.62;95808.05;1787216;80;20991;-62
2021/06/28 14:25:12;;;;;;;2.87;2.65;;;;;;;37.87;22.20;95797.83;1786908;80;20959;-61
2021/06/28 14:27:40;;;;;;;2.95;2.75;;;;;;;37.66;23.48;95797.27;1787180;80;21018;-61
2021/06/28 14:30:10;;;;;;;3.30;3.10;;;;;;;37.97;24.18;95800.81;1786985;80;20968;-61
2021/06/28 14:32:37;;;;;;;4.33;3.20;;;;;;;38.01;23.33;95804.41;1786810;80;21118;-61
2021/06/28 14:35:05;;;;;;;3.58;3.17;;;;;;;37.95;22.56;95799.63;1786881;80;21082;-61
2021/06/28 14:37:32;;;;;;;3.92;3.10;;;;;;;38.02;23.19;95804.72;1787293;80;20987;-61
2021/06/28 14:39:59;;;;;;;3.17;2.87;;;;;;;37.92;22.36;95812.41;1786969;80;21094;-61
2021/06/28 14:42:26;;;;;;;3.72;3.42;;;;;;;37.92;22.14;95816.54;1787264;80;20960;-61
2021/06/28 14:44:54;;;;;;;8.08;3.22;;;;;;;38.11;23.47;95812.36;1787012;80;21027;-61
2021/06/28 14:47:22;;;;;;;4.37;3.20;;;;;;;37.89;21.05;95805.92;1787063;80;21010;-61
2021/06/28 14:49:49;;;;;;;4.78;3.10;;;;;;;37.64;23.09;95807.61;1787355;80;21434;-61
2021/06/28 14:52:16;;;;;;;3.33;3.02;;;;;;;37.60;22.22;95804.93;1786721;80;21002;-62
2021/06/28 14:54:43;;;;;;;3.80;2.85;;;;;;;37.98;22.74;95800.66;1786905;80;21083;-61
2021/06/28 14:57:11;;;;;;;3.20;3.00;;;;;;;38.15;23.45;95799.88;1786910;80;21086;-61
2021/06/28 14:59:39;;;;;;;2.92;2.72;;;;;;;37.58;22.67;95798.76;1786802;80;21027;-61
2021/06/28 15:02:06;;;;;;;4.08;2.98;;;;;;;37.63;22.59;95797.66;1787082;80;20982;-61
2021/06/28 15:04:33;;;;;;;6.15;3.17;;;;;;;37.59;21.41;95794.09;1787263;80;21003;-61
2021/06/28 15:07:00;;;;;;;6.25;2.75;;;;;;;37.60;22.42;95791.16;1787288;80;20991;-62
2021/06/28 15:09:27;;;;;;;3.37;2.70;;;;;;;37.70;23.71;95797.75;1787281;80;21058;-60
2021/06/28 15:11:53;;;;;;;6.67;3.20;;;;;;;37.81;22.62;95788.98;1787182;80;21082;-61
2021/06/28 15:14:20;;;;;;;5.62;3.00;;;;;;;38.12;24.19;95785.66;1786646;80;21034;-61
2021/06/28 15:16:47;;;;;;;5.17;3.10;;;;;;;37.93;24.69;95786.59;1787081;80;21002;-61
2021/06/28 15:19:13;;;;;;;6.85;3.30;;;;;;;37.75;23.68;95784.76;1787335;80;20982;-61
2021/06/28 15:21:39;;;;;;;7.97;3.20;;;;;;;37.23;24.12;95795.70;1787083;80;20991;-61
2021/06/28 15:24:06;;;;;;;4.65;3.00;;;;;;;36.47;26.90;95790.72;1786896;80;21015;-61
2021/06/28 15:26:32;;;;;;;6.35;3.30;;;;;;;36.22;26.37;95788.67;1787270;80;20983;-61
2021/06/28 15:28:59;;;;;;;4.87;2.98;;;;;;;35.84;28.36;95790.45;1787065;80;21492;-61
2021/06/28 15:31:27;;;;;;;3.90;3.00;;;;;;;35.95;26.65;95792.24;1786818;80;21019;-61